PASV/SVW METAR and TAF weather

Enter ICAO airport designator
Station Type Date Time Source
PASV METAR 2019/04/20 21:55 UTC NOAA

PASV 202155Z AUTO 24005KT 10SM BKN039 M03/M13 A2966 RMK AO2 SLP073 T10261132


Station Type Date Time Source
PASV Decoded METAR 2019/04/20 21:55 UTC NOAA

Sparrevohn Airways Facilities Sector, AK, United States (PASV) 61-06N 155-34W
Apr 20, 2019 - 05:55 PM EDT / 2019.04.20 2155 UTC
Wind: from the WSW (240 degrees) at 6 MPH (5 KT):0
Visibility: 10 mile(s):0
Sky conditions: mostly cloudy
Temperature: 27.3 F (-2.6 C)
Windchill: 21 F (-6 C):1
Dew Point: 8.2 F (-13.2 C)
Relative Humidity: 43%
Pressure (altimeter): 29.66 in. Hg (1004 hPa)
ob: PASV 202155Z AUTO 24005KT 10SM BKN039 M03/M13 A2966 RMK AO2 SLP073 T10261132
cycle: 22

Station Type Date Time Source
PASV TAF 2012/01/12 14:57 UTC NOAA

TAF
AMD PASV 1214/1320 33010G15KT 4800 -SN BLSN SCT003 SCT110 QNH2984INS
BECMG 1221/1222 VRB06KT 9999 NSW FEW010 SCT110 QNH3000INS LIMITED METWATCH TM25/1300Z TM37/1315Z
AMD 121453

Example: see airport list